Time;durP1;ratioP1;P1;durP2;ratioP2;P2;SDS_P1;SDS_P2;PMS_P1;PMS_P2;Temp;Humidity;BMP_temperature;BMP_pressure;BME280_temperature;BME280_humidity;BME280_pressure;Samples;Min_cycle;Max_cycle;Signal;HPM_P1;HPM_P2
2023/05/26 00:00:34;;;;;;;10.40;4.70;;;9.40;99.90;;;;;;5005532;28;20546;-50
2023/05/26 00:03:03;;;;;;;11.20;4.90;;;9.40;99.90;;;;;;5011197;28;20460;-49
2023/05/26 00:05:29;;;;;;;15.17;6.37;;;9.30;99.90;;;;;;5011653;28;20460;-49
2023/05/26 00:07:56;;;;;;;13.23;5.83;;;9.20;99.90;;;;;;5011624;28;20456;-50
2023/05/26 00:10:25;;;;;;;14.80;5.73;;;9.20;99.90;;;;;;5010586;28;20515;-50
2023/05/26 00:12:51;;;;;;;16.70;5.53;;;9.20;99.90;;;;;;5012403;28;20471;-49
2023/05/26 00:15:18;;;;;;;15.47;6.57;;;9.10;99.90;;;;;;5010017;28;20474;-50
2023/05/26 00:17:50;;;;;;;10.87;5.23;;;9.10;99.90;;;;;;5010649;28;20842;-50
2023/05/26 00:20:17;;;;;;;12.70;5.43;;;9.00;99.90;;;;;;5009467;28;20551;-50
2023/05/26 00:22:44;;;;;;;11.13;5.10;;;8.90;99.90;;;;;;5009497;28;20474;-50
2023/05/26 00:25:10;;;;;;;12.73;5.63;;;8.80;99.90;;;;;;5006049;28;20982;-49
2023/05/26 00:27:37;;;;;;;14.97;5.90;;;8.90;99.90;;;;;;5008313;28;20954;-50
2023/05/26 00:30:04;;;;;;;13.97;6.47;;;8.90;99.90;;;;;;5010523;28;20452;-50
2023/05/26 00:32:31;;;;;;;17.20;6.40;;;8.80;99.90;;;;;;5011308;28;20490;-50
2023/05/26 00:34:59;;;;;;;14.20;5.57;;;8.90;99.90;;;;;;5011169;28;20973;-50
2023/05/26 00:37:25;;;;;;;24.37;5.67;;;8.70;99.90;;;;;;5008367;28;20464;-50
2023/05/26 00:39:52;;;;;;;16.90;6.30;;;8.70;99.90;;;;;;5009546;28;20484;-50
2023/05/26 00:42:18;;;;;;;13.90;5.40;;;8.70;99.90;;;;;;5008743;28;21161;-49
2023/05/26 00:44:45;;;;;;;14.70;6.00;;;8.60;99.90;;;;;;5008743;28;20499;-50
2023/05/26 00:47:12;;;;;;;24.97;6.87;;;8.50;99.90;;;;;;5010062;28;20506;-50
2023/05/26 00:49:39;;;;;;;13.10;5.97;;;8.50;99.90;;;;;;5006383;28;21147;-50
2023/05/26 00:52:07;;;;;;;15.00;5.80;;;8.40;99.90;;;;;;5006975;28;20515;-50
2023/05/26 00:54:34;;;;;;;12.57;5.93;;;8.50;99.90;;;;;;5006912;28;20512;-49
2023/05/26 00:57:02;;;;;;;14.37;5.20;;;8.40;99.90;;;;;;5009167;28;20474;-50
2023/05/26 00:59:29;;;;;;;12.63;5.20;;;8.40;99.90;;;;;;5008922;28;20586;-49
2023/05/26 01:01:55;;;;;;;13.40;5.37;;;8.40;99.90;;;;;;5007187;28;20488;-50
2023/05/26 01:04:22;;;;;;;16.80;6.80;;;8.40;98.40;;;;;;5007016;28;20503;-50
2023/05/26 01:06:52;;;;;;;13.83;6.07;;;8.40;99.90;;;;;;5008689;28;20464;-50
2023/05/26 01:09:21;;;;;;;12.40;5.63;;;8.40;99.90;;;;;;5010891;28;20467;-50
2023/05/26 01:11:55;;;;;;;12.63;5.87;;;8.40;99.90;;;;;;5008300;28;20579;-49
2023/05/26 01:14:26;;;;;;;13.73;5.87;;;8.30;99.90;;;;;;5003764;28;20456;-50
2023/05/26 01:16:58;;;;;;;13.50;5.90;;;8.30;99.90;;;;;;5009306;28;20522;-50
2023/05/26 01:19:56;;;;;;;15.83;6.10;;;8.20;99.90;;;;;;5009388;28;21044;-49
2023/05/26 01:22:37;;;;;;;10.73;6.00;;;8.20;99.90;;;;;;5008475;28;20479;-49
2023/05/26 01:25:16;;;;;;;13.70;5.83;;;8.20;99.90;;;;;;5011314;28;20612;-50
2023/05/26 01:27:50;;;;;;;13.70;5.23;;;8.10;99.90;;;;;;5008063;28;20549;-50
2023/05/26 01:30:18;;;;;;;19.97;7.00;;;8.10;99.90;;;;;;5010870;28;20500;-49
2023/05/26 01:32:48;;;;;;;16.17;6.60;;;8.10;99.90;;;;;;5010263;28;20514;-49
2023/05/26 01:35:15;;;;;;;12.30;5.97;;;8.00;99.90;;;;;;5012183;28;20544;-50
2023/05/26 01:37:43;;;;;;;14.40;6.37;;;8.20;99.90;;;;;;5013358;28;20466;-50
2023/05/26 01:40:11;;;;;;;12.97;5.90;;;8.00;99.90;;;;;;5007575;28;20523;-49
2023/05/26 01:42:44;;;;;;;13.67;5.90;;;8.00;99.90;;;;;;5013107;28;20467;-50
2023/05/26 01:45:16;;;;;;;16.13;5.70;;;7.90;99.90;;;;;;5009941;28;20498;-49
2023/05/26 01:47:48;;;;;;;11.27;5.40;;;7.90;99.90;;;;;;5012620;28;20467;-50
2023/05/26 01:50:16;;;;;;;11.43;5.43;;;7.90;99.90;;;;;;5011573;28;20460;-50
2023/05/26 01:52:44;;;;;;;12.90;5.97;;;7.80;99.90;;;;;;5013097;28;20519;-50
2023/05/26 01:55:12;;;;;;;12.83;5.97;;;7.70;99.90;;;;;;5013178;28;20958;-50
2023/05/26 01:57:41;;;;;;;10.23;5.30;;;7.60;99.90;;;;;;5010638;28;20459;-49
2023/05/26 02:00:10;;;;;;;13.07;5.70;;;7.60;99.90;;;;;;5011906;28;20479;-50
2023/05/26 02:02:36;;;;;;;14.60;6.00;;;7.60;99.90;;;;;;5012183;28;20563;-50
2023/05/26 02:05:06;;;;;;;20.73;6.30;;;7.60;99.90;;;;;;5011764;28;20464;-50
2023/05/26 02:07:34;;;;;;;9.83;5.20;;;7.60;99.90;;;;;;5014336;28;20464;-49
2023/05/26 02:10:01;;;;;;;9.63;5.40;;;7.60;99.90;;;;;;5014055;28;20443;-49
2023/05/26 02:12:27;;;;;;;10.77;6.30;;;7.50;99.90;;;;;;5014624;28;20997;-50
2023/05/26 02:14:54;;;;;;;12.17;5.30;;;7.40;99.90;;;;;;5012065;28;20460;-50
2023/05/26 02:17:20;;;;;;;12.83;5.73;;;7.40;99.90;;;;;;5014684;28;20448;-50
2023/05/26 02:19:48;;;;;;;13.50;6.40;;;7.40;99.90;;;;;;5013184;28;20487;-49
2023/05/26 02:22:16;;;;;;;13.77;5.60;;;7.30;99.90;;;;;;5014491;28;20833;-49
2023/05/26 02:24:42;;;;;;;12.70;5.23;;;7.30;99.90;;;;;;5014258;28;20502;-49
2023/05/26 02:27:10;;;;;;;15.03;5.20;;;7.30;99.90;;;;;;5008522;28;20452;-50
2023/05/26 02:29:36;;;;;;;13.87;5.30;;;7.20;99.90;;;;;;5013414;28;20463;-49
2023/05/26 02:32:03;;;;;;;14.23;6.13;;;7.20;99.90;;;;;;5008360;28;20536;-50
2023/05/26 02:34:29;;;;;;;12.33;5.90;;;7.20;99.90;;;;;;5012927;28;20527;-50
2023/05/26 02:36:56;;;;;;;7.97;4.50;;;7.20;99.90;;;;;;5012029;28;20832;-49
2023/05/26 02:39:24;;;;;;;20.40;5.10;;;7.10;99.90;;;;;;5012285;28;20480;-49
2023/05/26 02:41:52;;;;;;;10.80;6.20;;;7.10;99.90;;;;;;5012614;28;20488;-49
2023/05/26 02:44:18;;;;;;;8.00;4.80;;;7.10;99.90;;;;;;5010414;28;20920;-50
2023/05/26 02:46:45;;;;;;;12.07;5.23;;;7.00;99.90;;;;;;5013186;28;20467;-49
2023/05/26 02:49:12;;;;;;;11.33;4.67;;;7.10;99.90;;;;;;5010762;28;20864;-49
2023/05/26 02:51:38;;;;;;;11.23;5.10;;;7.00;99.90;;;;;;5007849;28;20495;-49
2023/05/26 02:54:05;;;;;;;11.87;5.40;;;7.10;99.90;;;;;;5013691;28;20448;-50
2023/05/26 02:56:33;;;;;;;12.67;5.83;;;7.10;99.90;;;;;;5012034;28;20522;-50
2023/05/26 02:59:00;;;;;;;13.20;5.37;;;7.10;99.90;;;;;;5010855;28;20484;-50
2023/05/26 03:01:27;;;;;;;10.23;4.77;;;7.10;99.90;;;;;;5009679;28;20484;-50
2023/05/26 03:03:54;;;;;;;10.20;5.50;;;7.00;99.90;;;;;;5012113;28;20460;-50
2023/05/26 03:06:22;;;;;;;15.40;6.20;;;7.00;99.90;;;;;;5009187;28;20882;-49
2023/05/26 03:08:48;;;;;;;12.23;6.10;;;7.00;99.90;;;;;;5004507;28;20464;-49
2023/05/26 03:11:15;;;;;;;7.03;5.03;;;6.90;99.90;;;;;;5009281;28;20480;-49
2023/05/26 03:13:43;;;;;;;15.50;6.13;;;6.90;99.90;;;;;;5009743;28;21011;-50
2023/05/26 03:16:10;;;;;;;9.33;4.97;;;6.90;99.90;;;;;;5011601;28;21088;-50
2023/05/26 03:18:37;;;;;;;9.07;4.83;;;7.00;99.90;;;;;;5006774;28;20514;-50
2023/05/26 03:21:06;;;;;;;11.93;5.83;;;7.00;99.90;;;;;;5009170;28;20480;-50
2023/05/26 03:23:33;;;;;;;12.23;6.27;;;6.90;99.90;;;;;;5009420;28;20949;-49
2023/05/26 03:26:01;;;;;;;17.13;5.70;;;6.90;99.90;;;;;;5008637;28;20518;-50
2023/05/26 03:28:28;;;;;;;10.70;5.60;;;6.90;99.90;;;;;;5011774;28;20555;-50
2023/05/26 03:30:57;;;;;;;8.07;4.77;;;6.90;99.90;;;;;;5009774;28;20542;-49
2023/05/26 03:33:24;;;;;;;11.30;5.33;;;6.90;99.90;;;;;;5010812;28;20470;-49
2023/05/26 03:35:51;;;;;;;9.23;5.20;;;6.80;99.90;;;;;;5010170;28;20470;-50
2023/05/26 03:38:18;;;;;;;9.80;5.57;;;6.90;99.90;;;;;;5011332;28;21598;-49
2023/05/26 03:40:44;;;;;;;12.37;6.20;;;6.90;99.90;;;;;;5004417;28;20492;-50
2023/05/26 03:43:11;;;;;;;13.07;6.00;;;6.90;99.90;;;;;;5009631;28;20460;-49
2023/05/26 03:45:37;;;;;;;13.53;5.90;;;6.90;99.90;;;;;;5008562;28;20522;-50
2023/05/26 03:48:08;;;;;;;13.03;6.10;;;7.00;99.90;;;;;;5009442;28;20518;-50
2023/05/26 03:50:35;;;;;;;15.30;6.50;;;7.00;99.90;;;;;;5003116;28;20483;-49
2023/05/26 03:53:02;;;;;;;9.70;5.33;;;7.10;99.90;;;;;;5009429;28;20474;-50
2023/05/26 03:55:28;;;;;;;17.47;6.10;;;7.10;99.90;;;;;;5008663;28;20491;-50
2023/05/26 03:57:55;;;;;;;20.23;7.30;;;7.20;99.90;;;;;;5009612;28;20515;-50
2023/05/26 04:00:22;;;;;;;8.90;5.00;;;7.20;99.90;;;;;;5007808;28;20475;-50
2023/05/26 04:02:48;;;;;;;12.07;5.60;;;7.20;99.90;;;;;;5008771;28;20456;-49
2023/05/26 04:05:16;;;;;;;11.03;5.80;;;7.30;99.50;;;;;;5006495;28;20459;-50
2023/05/26 04:07:44;;;;;;;9.43;5.87;;;7.40;99.90;;;;;;5007463;28;20507;-50
2023/05/26 04:10:11;;;;;;;12.57;6.27;;;7.50;99.90;;;;;;5011250;28;20452;-49
2023/05/26 04:12:38;;;;;;;14.40;6.20;;;7.50;99.90;;;;;;5011513;28;20477;-50
2023/05/26 04:15:06;;;;;;;12.10;6.17;;;7.50;99.90;;;;;;5011069;28;20609;-51
2023/05/26 04:17:32;;;;;;;11.03;5.90;;;7.60;99.90;;;;;;5009124;28;20464;-49
2023/05/26 04:19:59;;;;;;;12.80;6.13;;;7.70;99.90;;;;;;5007672;28;20483;-49
2023/05/26 04:22:27;;;;;;;15.60;7.03;;;7.70;99.90;;;;;;5011013;28;20491;-49
2023/05/26 04:24:53;;;;;;;15.43;7.30;;;7.80;99.90;;;;;;5011755;28;20885;-50
2023/05/26 04:27:20;;;;;;;16.63;7.00;;;7.90;98.20;;;;;;5012040;28;20459;-50
2023/05/26 04:29:46;;;;;;;23.60;7.67;;;8.00;99.10;;;;;;5009910;28;20961;-50
2023/05/26 04:32:15;;;;;;;20.00;6.90;;;8.00;95.50;;;;;;5010651;28;20929;-50
2023/05/26 04:34:44;;;;;;;21.83;6.87;;;8.10;95.90;;;;;;5008903;28;20909;-49
2023/05/26 04:37:11;;;;;;;18.43;6.13;;;8.20;95.80;;;;;;5006576;28;20493;-50
2023/05/26 04:39:39;;;;;;;23.10;8.20;;;8.30;93.90;;;;;;5009182;28;20480;-50
2023/05/26 04:42:06;;;;;;;32.27;8.07;;;8.40;95.20;;;;;;5010570;28;20538;-50
2023/05/26 04:44:32;;;;;;;27.27;6.90;;;8.50;98.40;;;;;;5008603;28;21052;-50
2023/05/26 04:47:00;;;;;;;31.40;8.70;;;8.60;97.70;;;;;;5008365;28;20958;-50
2023/05/26 04:49:29;;;;;;;18.60;6.00;;;8.70;99.90;;;;;;5003789;28;20463;-50
2023/05/26 04:51:57;;;;;;;28.50;6.90;;;8.80;99.90;;;;;;5012317;23;20487;-49
2023/05/26 04:54:24;;;;;;;27.27;6.63;;;8.90;99.90;;;;;;4988349;28;20988;-50
2023/05/26 04:56:53;;;;;;;20.30;6.80;;;8.90;99.90;;;;;;4994877;28;20954;-49
2023/05/26 04:59:21;;;;;;;20.07;6.50;;;9.00;99.90;;;;;;4992063;28;22113;-49
2023/05/26 05:01:48;;;;;;;22.87;7.70;;;9.00;99.90;;;;;;4992251;28;20862;-49
2023/05/26 05:04:15;;;;;;;27.63;7.63;;;9.10;99.90;;;;;;4995350;28;20460;-50
2023/05/26 05:06:41;;;;;;;31.43;7.97;;;9.20;99.90;;;;;;4997443;28;20961;-49
2023/05/26 05:09:08;;;;;;;21.67;6.77;;;9.20;99.90;;;;;;4997006;28;20468;-49
2023/05/26 05:11:35;;;;;;;17.73;6.20;;;9.30;99.90;;;;;;4993218;28;20498;-49
2023/05/26 05:14:03;;;;;;;39.47;7.97;;;9.40;99.90;;;;;;4995064;28;20535;-50
2023/05/26 05:16:30;;;;;;;23.30;7.10;;;9.50;99.90;;;;;;4995624;28;20468;-49
2023/05/26 05:18:56;;;;;;;23.60;6.57;;;9.60;99.90;;;;;;4996006;28;20469;-50
2023/05/26 05:21:23;;;;;;;24.53;6.63;;;9.70;99.90;;;;;;4994155;28;20499;-49
2023/05/26 05:23:50;;;;;;;29.23;7.40;;;9.80;99.90;;;;;;4992103;28;20464;-49
2023/05/26 05:26:16;;;;;;;16.30;6.13;;;9.80;99.90;;;;;;4995075;28;20491;-50
2023/05/26 05:28:43;;;;;;;22.23;7.10;;;9.90;99.90;;;;;;4994327;28;20814;-50
2023/05/26 05:31:11;;;;;;;28.67;6.97;;;10.00;99.90;;;;;;4995384;28;20460;-49
2023/05/26 05:33:38;;;;;;;21.90;6.47;;;10.10;99.90;;;;;;4988583;28;20532;-49
2023/05/26 05:36:05;;;;;;;27.10;7.57;;;10.20;99.90;;;;;;4995470;28;20491;-49
2023/05/26 05:38:32;;;;;;;22.73;7.40;;;10.30;99.90;;;;;;4994446;28;20997;-49
2023/05/26 05:40:58;;;;;;;22.77;7.37;;;10.40;99.90;;;;;;4985653;28;20570;-49
2023/05/26 05:43:25;;;;;;;27.60;9.17;;;10.40;99.90;;;;;;4987262;28;20962;-48
2023/05/26 05:45:52;;;;;;;27.90;6.70;;;10.50;99.90;;;;;;4991518;28;20488;-49
2023/05/26 05:48:20;;;;;;;33.13;7.10;;;10.60;99.90;;;;;;4993634;28;20460;-49
2023/05/26 05:50:46;;;;;;;26.27;7.57;;;10.70;99.90;;;;;;4993970;28;20488;-49
2023/05/26 05:53:13;;;;;;;23.43;7.13;;;10.70;99.90;;;;;;4992900;28;20523;-49
2023/05/26 05:55:39;;;;;;;21.83;6.67;;;10.80;99.90;;;;;;4993935;28;20554;-50
2023/05/26 05:58:06;;;;;;;30.53;7.57;;;10.80;99.90;;;;;;4996445;28;20491;-49
2023/05/26 06:00:33;;;;;;;21.17;6.63;;;10.90;99.90;;;;;;4995015;28;20492;-49
2023/05/26 06:02:59;;;;;;;28.83;7.17;;;11.00;99.90;;;;;;4992731;28;20468;-49
2023/05/26 06:05:27;;;;;;;33.57;7.83;;;11.10;99.90;;;;;;4994032;28;20452;-48
2023/05/26 06:07:54;;;;;;;28.37;7.50;;;11.20;99.90;;;;;;4987914;28;20449;-49
2023/05/26 06:10:20;;;;;;;25.43;6.77;;;11.30;99.90;;;;;;4989721;28;20522;-49
2023/05/26 06:12:47;;;;;;;31.93;7.87;;;11.30;99.90;;;;;;4990722;28;20465;-49
2023/05/26 06:15:13;;;;;;;35.67;7.40;;;11.50;99.90;;;;;;4991283;28;20807;-49
2023/05/26 06:17:40;;;;;;;34.17;8.00;;;11.50;99.90;;;;;;4991760;28;20465;-50
2023/05/26 06:20:08;;;;;;;36.50;7.07;;;11.60;99.90;;;;;;4992792;28;21161;-49
2023/05/26 06:22:37;;;;;;;27.63;7.40;;;11.60;99.90;;;;;;4992772;28;20547;-49
2023/05/26 06:25:05;;;;;;;31.03;8.60;;;11.70;99.90;;;;;;4991658;28;20961;-49
2023/05/26 06:27:31;;;;;;;33.23;8.93;;;11.80;99.90;;;;;;4990933;28;20469;-48
2023/05/26 06:29:58;;;;;;;27.83;6.63;;;11.90;99.90;;;;;;4991331;28;20806;-48
2023/05/26 06:32:25;;;;;;;25.00;6.83;;;11.90;99.90;;;;;;4991591;28;20544;-48
2023/05/26 06:34:51;;;;;;;27.87;7.60;;;12.00;99.90;;;;;;4993447;28;20464;-49
2023/05/26 06:37:18;;;;;;;22.53;6.17;;;12.10;99.90;;;;;;4994573;28;20808;-48
2023/05/26 06:39:46;;;;;;;28.60;8.10;;;12.20;99.90;;;;;;4993421;28;20496;-48
2023/05/26 06:42:12;;;;;;;30.17;7.43;;;12.30;99.90;;;;;;4985713;28;20480;-49
2023/05/26 06:44:39;;;;;;;34.77;7.20;;;12.40;99.90;;;;;;4985123;28;20478;-49
2023/05/26 06:47:06;;;;;;;37.13;8.00;;;12.50;99.90;;;;;;4986196;28;20480;-50
2023/05/26 06:49:33;;;;;;;28.73;7.67;;;12.50;99.90;;;;;;4989505;28;20876;-50
2023/05/26 06:51:59;;;;;;;26.70;7.20;;;12.60;99.90;;;;;;4989755;28;20539;-49
2023/05/26 06:54:26;;;;;;;27.50;7.17;;;12.70;99.90;;;;;;4991579;28;20469;-49
2023/05/26 06:56:54;;;;;;;32.67;8.10;;;12.70;99.90;;;;;;4993485;28;20441;-48
2023/05/26 06:59:21;;;;;;;32.77;8.23;;;12.80;99.90;;;;;;4992282;28;20492;-49
2023/05/26 07:01:47;;;;;;;24.13;7.03;;;12.90;75.30;;;;;;4991313;28;20924;-49
2023/05/26 07:04:14;;;;;;;36.43;7.70;;;12.90;29.90;;;;;;4990201;28;20460;-49
2023/05/26 07:06:40;;;;;;;29.97;6.50;;;13.00;32.90;;;;;;4988594;28;20535;-49
2023/05/26 07:09:07;;;;;;;31.93;7.47;;;13.10;30.20;;;;;;4984685;28;20461;-49
2023/05/26 07:11:34;;;;;;;28.30;6.50;;;13.10;46.10;;;;;;4984124;28;20535;-50
2023/05/26 07:14:02;;;;;;;33.27;8.10;;;13.20;60.20;;;;;;4987602;28;20465;-49
2023/05/26 07:16:28;;;;;;;35.20;7.47;;;13.30;60.30;;;;;;4991137;28;21024;-49
2023/05/26 07:18:55;;;;;;;28.67;7.07;;;13.40;65.50;;;;;;4987242;28;20464;-49
2023/05/26 07:21:24;;;;;;;29.00;8.97;;;13.40;52.50;;;;;;4986293;28;20499;-49
2023/05/26 07:23:51;;;;;;;33.40;7.60;;;13.40;78.20;;;;;;4990928;28;20449;-49
2023/05/26 07:26:18;;;;;;;27.00;8.13;;;13.50;70.00;;;;;;4984482;28;20962;-48
2023/05/26 07:28:46;;;;;;;30.37;6.80;;;13.60;67.30;;;;;;4991677;28;20461;-49
2023/05/26 07:31:14;;;;;;;33.43;7.50;;;13.70;80.00;;;;;;4988409;28;20472;-48
2023/05/26 07:33:40;;;;;;;30.87;7.80;;;13.80;71.80;;;;;;4992359;28;20495;-49
2023/05/26 07:36:07;;;;;;;31.37;6.33;;;13.90;83.10;;;;;;4990228;28;20872;-50
2023/05/26 07:38:34;;;;;;;34.67;7.70;;;14.00;89.00;;;;;;4991128;28;20476;-49
2023/05/26 07:41:01;;;;;;;24.67;6.00;;;14.00;99.90;;;;;;4992741;28;20488;-50
2023/05/26 07:43:27;;;;;;;28.33;7.07;;;14.10;99.90;;;;;;4989904;28;20465;-50
2023/05/26 07:45:54;;;;;;;31.73;7.73;;;14.20;99.90;;;;;;4991774;28;20465;-49
2023/05/26 07:48:22;;;;;;;22.87;6.43;;;14.30;20.10;;;;;;4989027;28;20469;-49
2023/05/26 07:50:48;;;;;;;37.80;7.00;;;14.40;50.30;;;;;;4991317;28;20909;-49
2023/05/26 07:53:15;;;;;;;29.53;6.23;;;14.30;76.60;;;;;;4989333;28;20523;-50
2023/05/26 07:55:42;;;;;;;29.07;6.50;;;14.30;69.90;;;;;;4992593;28;20820;-48
2023/05/26 07:58:10;;;;;;;27.57;5.80;;;14.40;58.10;;;;;;4992157;28;20504;-48
2023/05/26 08:00:36;;;;;;;23.40;6.23;;;14.50;73.60;;;;;;4991869;28;20495;-49
2023/05/26 08:03:03;;;;;;;23.80;7.20;;;14.60;73.30;;;;;;4992799;28;20453;-50
2023/05/26 08:05:31;;;;;;;24.03;6.50;;;14.50;86.20;;;;;;4992659;28;21001;-49
2023/05/26 08:07:58;;;;;;;23.57;7.17;;;14.60;87.50;;;;;;4992917;28;20994;-49
2023/05/26 08:10:25;;;;;;;26.37;6.33;;;14.70;90.10;;;;;;4990859;28;20465;-49
2023/05/26 08:12:53;;;;;;;29.33;7.20;;;14.70;99.90;;;;;;4992646;28;20449;-49
2023/05/26 08:15:21;;;;;;;27.63;6.73;;;14.90;99.90;;;;;;4990433;28;20491;-49
2023/05/26 08:17:49;;;;;;;35.53;7.00;;;14.80;99.90;;;;;;4988653;28;21889;-49
2023/05/26 08:20:15;;;;;;;28.43;6.50;;;14.90;99.90;;;;;;4992696;28;20453;-50
2023/05/26 08:22:44;;;;;;;27.77;6.97;;;15.00;99.90;;;;;;4992800;28;20484;-49
2023/05/26 08:25:12;;;;;;;22.33;6.10;;;15.10;99.90;;;;;;4991707;28;20460;-49
2023/05/26 08:27:39;;;;;;;19.03;6.13;;;15.10;99.90;;;;;;4989401;28;21005;-49
2023/05/26 08:30:07;;;;;;;20.60;5.90;;;15.30;99.90;;;;;;4990043;28;21036;-49
2023/05/26 08:32:34;;;;;;;24.67;6.50;;;15.40;99.90;;;;;;4991864;28;20464;-49
2023/05/26 08:35:01;;;;;;;22.70;6.40;;;15.60;99.90;;;;;;4992595;28;20449;-49
2023/05/26 08:37:28;;;;;;;27.20;6.80;;;15.50;99.90;;;;;;4992758;28;20449;-49
2023/05/26 08:39:57;;;;;;;23.60;6.50;;;15.40;99.90;;;;;;4984602;28;20464;-48
2023/05/26 08:42:28;;;;;;;23.33;6.53;;;15.60;99.90;;;;;;4988993;28;20547;-48
2023/05/26 08:44:56;;;;;;;19.50;5.70;;;15.80;99.90;;;;;;4990506;28;20563;-50
2023/05/26 08:47:24;;;;;;;21.60;6.07;;;15.90;99.90;;;;;;4991757;28;20872;-48
2023/05/26 08:49:54;;;;;;;24.53;6.20;;;16.00;99.90;;;;;;4992247;28;20460;-48
2023/05/26 08:52:22;;;;;;;30.93;6.30;;;15.80;99.90;;;;;;4989561;28;20580;-49
2023/05/26 08:54:50;;;;;;;26.40;6.10;;;16.20;99.90;;;;;;4991878;28;20655;-49
2023/05/26 08:57:20;;;;;;;13.80;4.70;;;16.30;99.90;;;;;;4992263;28;20449;-49
2023/05/26 08:59:48;;;;;;;16.60;5.77;;;16.40;99.90;;;;;;4995409;28;20480;-49
2023/05/26 09:02:17;;;;;;;19.43;5.47;;;16.60;99.90;;;;;;4992099;28;20543;-50
2023/05/26 09:04:44;;;;;;;27.40;6.10;;;16.80;99.90;;;;;;4991647;28;20467;-49
2023/05/26 09:07:10;;;;;;;19.70;4.93;;;16.70;99.90;;;;;;4999245;28;20455;-50
2023/05/26 09:09:37;;;;;;;21.37;5.27;;;16.90;99.90;;;;;;4990376;28;20476;-50
2023/05/26 09:12:09;;;;;;;23.10;6.20;;;17.00;99.90;;;;;;4990249;28;20480;-50
2023/05/26 09:14:39;;;;;;;18.20;6.27;;;17.30;99.90;;;;;;4990363;28;20507;-49
2023/05/26 09:17:06;;;;;;;19.20;5.80;;;17.30;99.90;;;;;;4991610;28;20947;-50
2023/05/26 09:19:34;;;;;;;22.27;6.10;;;17.40;99.90;;;;;;4990909;28;20472;-49
2023/05/26 09:22:07;;;;;;;21.60;5.50;;;17.60;99.90;;;;;;4987711;28;20484;-49
2023/05/26 09:24:44;;;;;;;19.33;5.40;;;17.80;99.90;;;;;;4991255;28;20449;-49
2023/05/26 09:27:17;;;;;;;22.77;5.50;;;17.70;99.90;;;;;;4991224;28;20444;-49
2023/05/26 09:29:50;;;;;;;22.27;5.97;;;17.70;99.90;;;;;;4985819;28;20473;-49
2023/05/26 09:32:16;;;;;;;13.37;4.37;;;17.90;99.90;;;;;;4991176;28;20484;-48
2023/05/26 09:34:43;;;;;;;15.27;4.33;;;17.90;99.90;;;;;;4991617;28;20449;-50
2023/05/26 09:37:11;;;;;;;12.93;4.70;;;17.50;99.90;;;;;;4990526;28;20527;-48
2023/05/26 09:39:38;;;;;;;16.33;4.77;;;17.70;99.90;;;;;;4991453;28;20556;-49
2023/05/26 09:42:07;;;;;;;18.13;5.20;;;17.80;99.90;;;;;;4992929;28;20488;-50
2023/05/26 09:44:34;;;;;;;15.83;4.47;;;17.60;99.90;;;;;;4994202;28;20504;-49
2023/05/26 09:47:02;;;;;;;13.60;4.63;;;17.70;99.90;;;;;;4995516;28;20503;-49
2023/05/26 09:49:28;;;;;;;20.47;5.70;;;17.80;99.90;;;;;;4995403;28;20872;-48
2023/05/26 09:51:55;;;;;;;20.10;5.67;;;18.30;99.90;;;;;;4993673;28;20547;-49
2023/05/26 09:54:22;;;;;;;16.60;5.80;;;18.70;99.90;;;;;;4995575;28;20457;-49
2023/05/26 09:56:53;;;;;;;17.53;5.00;;;18.50;99.90;;;;;;4995715;28;20523;-49
2023/05/26 09:59:20;;;;;;;26.23;5.17;;;18.70;99.90;;;;;;4994263;28;20564;-49
2023/05/26 10:01:47;;;;;;;14.80;5.07;;;18.80;99.90;;;;;;4992596;28;20489;-49
2023/05/26 10:04:16;;;;;;;23.00;6.10;;;19.30;99.90;;;;;;4994873;28;20452;-48
2023/05/26 10:06:44;;;;;;;23.33;5.90;;;19.60;99.90;;;;;;4995102;28;20821;-49
2023/05/26 10:09:12;;;;;;;13.80;4.50;;;19.90;99.90;;;;;;4995047;28;20947;-50
2023/05/26 10:11:42;;;;;;;14.83;4.10;;;19.70;99.90;;;;;;4987875;28;20485;-49
2023/05/26 10:14:09;;;;;;;17.03;4.47;;;19.90;99.90;;;;;;4993508;28;20938;-48
2023/05/26 10:16:38;;;;;;;13.87;4.60;;;19.90;99.90;;;;;;4989805;28;20472;-49
2023/05/26 10:19:08;;;;;;;11.97;4.90;;;19.70;99.90;;;;;;4995109;28;20456;-49
2023/05/26 10:21:41;;;;;;;10.30;3.90;;;19.60;99.90;;;;;;4991716;28;20567;-49
2023/05/26 10:24:12;;;;;;;12.77;4.53;;;20.00;99.90;;;;;;4988913;28;20460;-49
2023/05/26 10:26:48;;;;;;;16.73;4.23;;;20.00;99.90;;;;;;4990767;28;20512;-50
2023/05/26 10:29:19;;;;;;;13.43;3.70;;;21.00;99.90;;;;;;4990939;28;20996;-50
2023/05/26 10:31:46;;;;;;;17.80;4.70;;;20.40;99.90;;;;;;4992734;28;20981;-48
2023/05/26 10:34:14;;;;;;;15.13;4.13;;;20.90;99.90;;;;;;4993451;28;20461;-50
2023/05/26 10:36:42;;;;;;;13.47;4.43;;;21.50;99.90;;;;;;4989236;28;20460;-50
2023/05/26 10:39:12;;;;;;;11.37;3.73;;;20.60;99.90;;;;;;4991345;28;20498;-50
2023/05/26 10:41:40;;;;;;;16.03;4.70;;;20.40;99.90;;;;;;4989597;28;20547;-50
2023/05/26 10:44:27;;;;;;;8.93;3.70;;;21.00;99.90;;;;;;4985787;28;20511;-50
2023/05/26 10:47:04;;;;;;;22.17;5.10;;;21.10;99.90;;;;;;4980748;28;20566;-50
2023/05/26 10:49:36;;;;;;;14.33;5.30;;;21.20;99.90;;;;;;4992958;28;20825;-50
2023/05/26 10:52:13;;;;;;;11.50;3.90;;;21.60;99.90;;;;;;5019386;23;20507;-55
2023/05/26 10:54:40;;;;;;;14.67;4.90;;;21.50;99.90;;;;;;5038809;28;20450;-51
2023/05/26 10:57:26;;;;;;;9.17;4.33;;;21.70;99.90;;;;;;5038230;28;20960;-51
2023/05/26 10:59:54;;;;;;;10.27;4.57;;;22.20;99.90;;;;;;5025176;28;20466;-54
2023/05/26 11:02:22;;;;;;;13.60;4.53;;;22.10;99.90;;;;;;5035698;28;20479;-53
2023/05/26 11:04:50;;;;;;;17.20;4.70;;;21.90;99.90;;;;;;5020075;28;20915;-50
2023/05/26 11:07:22;;;;;;;15.97;4.80;;;21.30;99.90;;;;;;5003425;28;20441;-50
2023/05/26 11:10:01;;;;;;;17.93;4.40;;;21.30;99.90;;;;;;5001483;28;20464;-51
2023/05/26 11:12:32;;;;;;;11.57;3.93;;;21.20;99.90;;;;;;4993283;28;20469;-53
2023/05/26 11:14:59;;;;;;;20.50;4.83;;;20.90;99.90;;;;;;5000675;28;20500;-53
2023/05/26 11:17:28;;;;;;;7.30;3.33;;;20.80;99.90;;;;;;5028773;28;20471;-53
2023/05/26 11:19:58;;;;;;;16.77;4.57;;;20.70;99.90;;;;;;5024900;28;20951;-54
2023/05/26 11:22:27;;;;;;;12.77;4.23;;;20.70;99.90;;;;;;5024833;28;20571;-53
2023/05/26 11:24:56;;;;;;;9.67;3.60;;;20.70;99.90;;;;;;4995789;28;20457;-53
2023/05/26 11:27:26;;;;;;;11.47;4.67;;;20.30;99.90;;;;;;5004421;28;20564;-53
2023/05/26 11:29:59;;;;;;;9.47;3.77;;;20.80;99.90;;;;;;5004990;28;20463;-53
2023/05/26 11:32:27;;;;;;;14.67;4.77;;;21.20;99.90;;;;;;5003035;28;20476;-52
2023/05/26 11:34:53;;;;;;;9.90;3.60;;;21.30;99.90;;;;;;4998034;28;20468;-52
2023/05/26 11:37:22;;;;;;;14.77;5.00;;;20.50;99.90;;;;;;4995286;28;21005;-52
2023/05/26 11:39:50;;;;;;;11.93;4.40;;;20.10;99.90;;;;;;4998822;28;20479;-53
2023/05/26 11:42:17;;;;;;;18.37;4.37;;;19.60;99.90;;;;;;5003793;28;20475;-53
2023/05/26 11:44:44;;;;;;;14.07;4.30;;;19.40;99.90;;;;;;4998641;28;20535;-54
2023/05/26 11:47:14;;;;;;;12.77;3.60;;;19.60;99.90;;;;;;5001672;28;20472;-52
2023/05/26 11:49:46;;;;;;;14.37;4.33;;;19.80;99.90;;;;;;5002719;28;20654;-52
2023/05/26 11:52:14;;;;;;;14.70;4.30;;;20.30;99.90;;;;;;4997122;28;20488;-52
2023/05/26 11:54:40;;;;;;;16.50;4.53;;;20.80;99.90;;;;;;4996155;28;20534;-53
2023/05/26 11:57:23;;;;;;;18.73;4.60;;;21.20;99.90;;;;;;5007401;28;20459;-53
2023/05/26 11:59:52;;;;;;;21.30;4.70;;;21.50;99.90;;;;;;5007029;28;20471;-53
2023/05/26 12:02:19;;;;;;;22.83;4.00;;;21.60;99.90;;;;;;4998458;28;20553;-60
2023/05/26 12:04:45;;;;;;;16.70;4.00;;;20.90;99.90;;;;;;5003988;28;20468;-53
2023/05/26 12:07:24;;;;;;;17.00;3.80;;;21.20;99.90;;;;;;4997883;28;20546;-53
2023/05/26 12:10:03;;;;;;;12.40;3.87;;;21.00;99.90;;;;;;5006722;28;20455;-52
2023/05/26 12:12:33;;;;;;;12.00;4.40;;;21.20;99.90;;;;;;5000949;28;20488;-53
2023/05/26 12:15:08;;;;;;;9.03;4.17;;;20.30;99.90;;;;;;5003344;28;20810;-53
2023/05/26 12:17:35;;;;;;;15.00;4.50;;;20.10;85.70;;;;;;5006541;28;20464;-52
2023/05/26 12:20:04;;;;;;;17.63;5.03;;;20.20;99.90;;;;;;5007995;28;20459;-53
2023/05/26 12:22:31;;;;;;;14.33;4.40;;;20.30;99.90;;;;;;5006282;28;20488;-53
2023/05/26 12:24:59;;;;;;;19.23;5.27;;;20.50;99.90;;;;;;5009350;28;20986;-54
2023/05/26 12:27:36;;;;;;;26.03;5.20;;;20.00;99.90;;;;;;5008924;28;20551;-53
2023/05/26 12:30:18;;;;;;;9.17;3.67;;;20.20;99.90;;;;;;5006924;28;21020;-53
2023/05/26 12:32:45;;;;;;;17.70;5.37;;;20.00;99.90;;;;;;5001486;28;20977;-54
2023/05/26 12:35:12;;;;;;;15.53;4.20;;;20.60;99.90;;;;;;5011502;28;20537;-52
2023/05/26 12:37:38;;;;;;;13.20;5.03;;;20.70;99.90;;;;;;5002877;28;21011;-53
2023/05/26 12:40:06;;;;;;;14.57;3.80;;;21.60;99.90;;;;;;5008890;28;20463;-53
2023/05/26 12:42:33;;;;;;;17.57;4.90;;;21.50;99.10;;;;;;5007271;28;20546;-53
2023/05/26 12:45:01;;;;;;;16.67;5.20;;;21.40;89.30;;;;;;5008326;28;20518;-53